sensor_id;sensor_type;location;lat;lon;timestamp;P1;durP1;ratioP1;P2;durP2;ratioP2
58518;SDS011;44310;48.106;12.008;2022-08-21T00:01:39;0.90;;;0.80;;
58518;SDS011;44310;48.106;12.008;2022-08-21T00:04:07;1.02;;;0.95;;
58518;SDS011;44310;48.106;12.008;2022-08-21T00:06:35;1.70;;;1.00;;
58518;SDS011;44310;48.106;12.008;2022-08-21T00:09:04;1.00;;;1.00;;
58518;SDS011;44310;48.106;12.008;2022-08-21T00:11:34;0.80;;;0.80;;
58518;SDS011;44310;48.106;12.008;2022-08-21T00:14:03;4.70;;;1.50;;
58518;SDS011;44310;48.106;12.008;2022-08-21T00:16:32;1.23;;;1.08;;
58518;SDS011;44310;48.106;12.008;2022-08-21T00:19:00;4.50;;;1.40;;
58518;SDS011;44310;48.106;12.008;2022-08-21T00:21:28;2.75;;;1.25;;
58518;SDS011;44310;48.106;12.008;2022-08-21T00:23:55;4.35;;;2.05;;
58518;SDS011;44310;48.106;12.008;2022-08-21T00:26:23;5.83;;;2.83;;
58518;SDS011;44310;48.106;12.008;2022-08-21T00:28:50;2.30;;;2.10;;
58518;SDS011;44310;48.106;12.008;2022-08-21T00:31:17;1.50;;;1.40;;
58518;SDS011;44310;48.106;12.008;2022-08-21T00:33:45;7.10;;;1.67;;
58518;SDS011;44310;48.106;12.008;2022-08-21T00:36:13;1.00;;;0.80;;
58518;SDS011;44310;48.106;12.008;2022-08-21T00:38:40;1.10;;;1.10;;
58518;SDS011;44310;48.106;12.008;2022-08-21T00:41:09;4.60;;;2.00;;
58518;SDS011;44310;48.106;12.008;2022-08-21T00:43:57;1.40;;;1.30;;
58518;SDS011;44310;48.106;12.008;2022-08-21T00:46:25;1.73;;;1.50;;
58518;SDS011;44310;48.106;12.008;2022-08-21T00:48:54;1.00;;;1.00;;
58518;SDS011;44310;48.106;12.008;2022-08-21T00:51:47;0.90;;;0.90;;
58518;SDS011;44310;48.106;12.008;2022-08-21T00:54:14;1.15;;;0.98;;
58518;SDS011;44310;48.106;12.008;2022-08-21T00:56:46;1.90;;;0.80;;
58518;SDS011;44310;48.106;12.008;2022-08-21T00:59:19;1.42;;;1.33;;
58518;SDS011;44310;48.106;12.008;2022-08-21T01:01:47;4.07;;;1.25;;
58518;SDS011;44310;48.106;12.008;2022-08-21T01:04:14;0.50;;;0.50;;
58518;SDS011;44310;48.106;12.008;2022-08-21T01:06:43;0.60;;;0.60;;
58518;SDS011;44310;48.106;12.008;2022-08-21T01:09:11;0.52;;;0.52;;
58518;SDS011;44310;48.106;12.008;2022-08-21T01:11:40;1.23;;;1.20;;
58518;SDS011;44310;48.106;12.008;2022-08-21T01:14:09;0.50;;;0.50;;
58518;SDS011;44310;48.106;12.008;2022-08-21T01:16:40;0.65;;;0.65;;
58518;SDS011;44310;48.106;12.008;2022-08-21T01:19:11;0.60;;;0.60;;
58518;SDS011;44310;48.106;12.008;2022-08-21T01:21:40;0.80;;;0.80;;
58518;SDS011;44310;48.106;12.008;2022-08-21T01:24:10;0.80;;;0.80;;
58518;SDS011;44310;48.106;12.008;2022-08-21T01:26:38;1.00;;;1.00;;
58518;SDS011;44310;48.106;12.008;2022-08-21T01:29:20;0.75;;;0.65;;
58518;SDS011;44310;48.106;12.008;2022-08-21T01:31:55;0.60;;;0.60;;
58518;SDS011;44310;48.106;12.008;2022-08-21T01:34:23;0.60;;;0.60;;
58518;SDS011;44310;48.106;12.008;2022-08-21T01:36:50;0.60;;;0.60;;
58518;SDS011;44310;48.106;12.008;2022-08-21T01:39:18;3.10;;;1.10;;
58518;SDS011;44310;48.106;12.008;2022-08-21T01:41:46;0.70;;;0.70;;
58518;SDS011;44310;48.106;12.008;2022-08-21T01:44:13;1.00;;;1.00;;
58518;SDS011;44310;48.106;12.008;2022-08-21T01:46:40;0.60;;;0.60;;
58518;SDS011;44310;48.106;12.008;2022-08-21T01:49:08;1.70;;;0.90;;
58518;SDS011;44310;48.106;12.008;2022-08-21T01:51:35;0.60;;;0.60;;
58518;SDS011;44310;48.106;12.008;2022-08-21T01:54:02;0.82;;;0.82;;
58518;SDS011;44310;48.106;12.008;2022-08-21T01:56:35;1.70;;;1.48;;
58518;SDS011;44310;48.106;12.008;2022-08-21T01:59:06;0.60;;;0.60;;
58518;SDS011;44310;48.106;12.008;2022-08-21T02:01:34;0.80;;;0.80;;
58518;SDS011;44310;48.106;12.008;2022-08-21T02:04:02;1.30;;;1.10;;
58518;SDS011;44310;48.106;12.008;2022-08-21T02:06:30;1.13;;;0.82;;
58518;SDS011;44310;48.106;12.008;2022-08-21T02:08:57;0.60;;;0.60;;
58518;SDS011;44310;48.106;12.008;2022-08-21T02:11:24;0.60;;;0.60;;
58518;SDS011;44310;48.106;12.008;2022-08-21T02:13:52;1.17;;;0.93;;
58518;SDS011;44310;48.106;12.008;2022-08-21T02:16:19;0.88;;;0.88;;
58518;SDS011;44310;48.106;12.008;2022-08-21T02:18:47;0.93;;;0.82;;
58518;SDS011;44310;48.106;12.008;2022-08-21T02:21:14;1.03;;;0.60;;
58518;SDS011;44310;48.106;12.008;2022-08-21T02:23:41;0.52;;;0.52;;
58518;SDS011;44310;48.106;12.008;2022-08-21T02:26:09;0.77;;;0.77;;
58518;SDS011;44310;48.106;12.008;2022-08-21T02:28:37;0.95;;;0.95;;
58518;SDS011;44310;48.106;12.008;2022-08-21T02:31:05;1.10;;;1.10;;
58518;SDS011;44310;48.106;12.008;2022-08-21T02:33:32;0.70;;;0.70;;
58518;SDS011;44310;48.106;12.008;2022-08-21T02:36:00;1.00;;;1.00;;
58518;SDS011;44310;48.106;12.008;2022-08-21T02:38:30;6.40;;;1.20;;
58518;SDS011;44310;48.106;12.008;2022-08-21T02:41:00;6.63;;;1.52;;
58518;SDS011;44310;48.106;12.008;2022-08-21T02:43:27;2.00;;;1.00;;
58518;SDS011;44310;48.106;12.008;2022-08-21T02:45:55;1.90;;;0.70;;
58518;SDS011;44310;48.106;12.008;2022-08-21T02:48:25;2.30;;;0.80;;
58518;SDS011;44310;48.106;12.008;2022-08-21T02:50:57;0.55;;;0.55;;
58518;SDS011;44310;48.106;12.008;2022-08-21T02:53:32;1.10;;;0.90;;
58518;SDS011;44310;48.106;12.008;2022-08-21T02:56:01;0.90;;;0.90;;
58518;SDS011;44310;48.106;12.008;2022-08-21T02:58:36;1.05;;;1.05;;
58518;SDS011;44310;48.106;12.008;2022-08-21T03:01:07;0.88;;;0.88;;
58518;SDS011;44310;48.106;12.008;2022-08-21T03:03:36;0.60;;;0.60;;
58518;SDS011;44310;48.106;12.008;2022-08-21T03:06:05;0.60;;;0.60;;
58518;SDS011;44310;48.106;12.008;2022-08-21T03:08:35;0.90;;;0.90;;
58518;SDS011;44310;48.106;12.008;2022-08-21T03:11:03;0.80;;;0.80;;
58518;SDS011;44310;48.106;12.008;2022-08-21T03:13:33;5.60;;;0.90;;
58518;SDS011;44310;48.106;12.008;2022-08-21T03:16:00;0.80;;;0.80;;
58518;SDS011;44310;48.106;12.008;2022-08-21T03:18:30;0.88;;;0.88;;
58518;SDS011;44310;48.106;12.008;2022-08-21T03:20:58;1.30;;;1.00;;
58518;SDS011;44310;48.106;12.008;2022-08-21T03:23:25;0.70;;;0.70;;
58518;SDS011;44310;48.106;12.008;2022-08-21T03:25:58;0.90;;;0.90;;
58518;SDS011;44310;48.106;12.008;2022-08-21T03:28:25;0.60;;;0.60;;
58518;SDS011;44310;48.106;12.008;2022-08-21T03:30:53;0.60;;;0.60;;
58518;SDS011;44310;48.106;12.008;2022-08-21T03:33:21;0.70;;;0.70;;
58518;SDS011;44310;48.106;12.008;2022-08-21T03:35:58;0.60;;;0.60;;
58518;SDS011;44310;48.106;12.008;2022-08-21T03:38:28;0.50;;;0.50;;
58518;SDS011;44310;48.106;12.008;2022-08-21T03:40:57;0.60;;;0.60;;
58518;SDS011;44310;48.106;12.008;2022-08-21T03:43:25;0.60;;;0.60;;
58518;SDS011;44310;48.106;12.008;2022-08-21T03:45:56;0.60;;;0.60;;
58518;SDS011;44310;48.106;12.008;2022-08-21T03:48:24;1.15;;;1.05;;
58518;SDS011;44310;48.106;12.008;2022-08-21T03:50:51;1.10;;;1.10;;
58518;SDS011;44310;48.106;12.008;2022-08-21T03:53:19;0.60;;;0.60;;
58518;SDS011;44310;48.106;12.008;2022-08-21T03:55:48;0.60;;;0.60;;
58518;SDS011;44310;48.106;12.008;2022-08-21T03:58:18;0.85;;;0.85;;
58518;SDS011;44310;48.106;12.008;2022-08-21T04:00:49;1.70;;;0.95;;
58518;SDS011;44310;48.106;12.008;2022-08-21T04:03:18;0.53;;;0.53;;
58518;SDS011;44310;48.106;12.008;2022-08-21T04:05:46;0.50;;;0.50;;
58518;SDS011;44310;48.106;12.008;2022-08-21T04:08:14;0.50;;;0.50;;
58518;SDS011;44310;48.106;12.008;2022-08-21T04:10:47;0.70;;;0.70;;
58518;SDS011;44310;48.106;12.008;2022-08-21T04:13:16;0.60;;;0.60;;
58518;SDS011;44310;48.106;12.008;2022-08-21T04:15:44;0.60;;;0.60;;
58518;SDS011;44310;48.106;12.008;2022-08-21T04:18:11;0.88;;;0.88;;
58518;SDS011;44310;48.106;12.008;2022-08-21T04:20:40;0.50;;;0.50;;
58518;SDS011;44310;48.106;12.008;2022-08-21T04:23:17;0.50;;;0.50;;
58518;SDS011;44310;48.106;12.008;2022-08-21T04:25:50;0.50;;;0.50;;
58518;SDS011;44310;48.106;12.008;2022-08-21T04:28:19;0.60;;;0.60;;
58518;SDS011;44310;48.106;12.008;2022-08-21T04:30:49;0.50;;;0.50;;
58518;SDS011;44310;48.106;12.008;2022-08-21T04:33:19;1.23;;;1.13;;
58518;SDS011;44310;48.106;12.008;2022-08-21T04:35:47;0.50;;;0.50;;
58518;SDS011;44310;48.106;12.008;2022-08-21T04:38:16;0.60;;;0.60;;
58518;SDS011;44310;48.106;12.008;2022-08-21T04:40:43;0.60;;;0.60;;
58518;SDS011;44310;48.106;12.008;2022-08-21T04:43:11;0.60;;;0.60;;
58518;SDS011;44310;48.106;12.008;2022-08-21T04:45:41;0.60;;;0.60;;
58518;SDS011;44310;48.106;12.008;2022-08-21T04:48:11;2.03;;;1.52;;
58518;SDS011;44310;48.106;12.008;2022-08-21T04:50:42;0.77;;;0.77;;
58518;SDS011;44310;48.106;12.008;2022-08-21T04:53:25;0.50;;;0.50;;
58518;SDS011;44310;48.106;12.008;2022-08-21T04:56:04;0.90;;;0.90;;
58518;SDS011;44310;48.106;12.008;2022-08-21T04:58:35;0.50;;;0.50;;
58518;SDS011;44310;48.106;12.008;2022-08-21T05:01:06;0.93;;;0.93;;
58518;SDS011;44310;48.106;12.008;2022-08-21T05:03:38;0.75;;;0.75;;
58518;SDS011;44310;48.106;12.008;2022-08-21T05:06:08;0.60;;;0.60;;
58518;SDS011;44310;48.106;12.008;2022-08-21T05:08:38;1.70;;;0.80;;
58518;SDS011;44310;48.106;12.008;2022-08-21T05:11:07;1.10;;;1.00;;
58518;SDS011;44310;48.106;12.008;2022-08-21T05:13:34;0.60;;;0.60;;
58518;SDS011;44310;48.106;12.008;2022-08-21T05:16:02;0.52;;;0.52;;
58518;SDS011;44310;48.106;12.008;2022-08-21T05:18:30;0.70;;;0.70;;
58518;SDS011;44310;48.106;12.008;2022-08-21T05:20:57;0.70;;;0.70;;
58518;SDS011;44310;48.106;12.008;2022-08-21T05:23:25;1.60;;;0.70;;
58518;SDS011;44310;48.106;12.008;2022-08-21T05:25:52;0.80;;;0.80;;
58518;SDS011;44310;48.106;12.008;2022-08-21T05:28:20;0.67;;;0.67;;
58518;SDS011;44310;48.106;12.008;2022-08-21T05:30:47;5.55;;;1.45;;
58518;SDS011;44310;48.106;12.008;2022-08-21T05:33:15;5.40;;;1.10;;
58518;SDS011;44310;48.106;12.008;2022-08-21T05:35:42;0.85;;;0.85;;
58518;SDS011;44310;48.106;12.008;2022-08-21T05:38:09;7.85;;;2.10;;
58518;SDS011;44310;48.106;12.008;2022-08-21T05:40:44;6.13;;;1.60;;
58518;SDS011;44310;48.106;12.008;2022-08-21T05:43:12;0.88;;;0.88;;
58518;SDS011;44310;48.106;12.008;2022-08-21T05:45:41;2.65;;;1.10;;
58518;SDS011;44310;48.106;12.008;2022-08-21T05:48:11;2.65;;;0.68;;
58518;SDS011;44310;48.106;12.008;2022-08-21T05:50:41;6.88;;;1.25;;
58518;SDS011;44310;48.106;12.008;2022-08-21T05:53:09;1.00;;;1.00;;
58518;SDS011;44310;48.106;12.008;2022-08-21T05:55:37;2.67;;;1.10;;
58518;SDS011;44310;48.106;12.008;2022-08-21T05:58:12;0.70;;;0.70;;
58518;SDS011;44310;48.106;12.008;2022-08-21T06:00:41;6.60;;;1.30;;
58518;SDS011;44310;48.106;12.008;2022-08-21T06:03:29;0.70;;;0.70;;
58518;SDS011;44310;48.106;12.008;2022-08-21T06:05:59;1.20;;;1.10;;
58518;SDS011;44310;48.106;12.008;2022-08-21T06:08:27;0.97;;;0.93;;
58518;SDS011;44310;48.106;12.008;2022-08-21T06:10:56;0.80;;;0.80;;
58518;SDS011;44310;48.106;12.008;2022-08-21T06:13:26;1.30;;;1.20;;
58518;SDS011;44310;48.106;12.008;2022-08-21T06:16:04;2.00;;;1.00;;
58518;SDS011;44310;48.106;12.008;2022-08-21T06:18:34;0.60;;;0.60;;
58518;SDS011;44310;48.106;12.008;2022-08-21T06:21:02;0.80;;;0.80;;
58518;SDS011;44310;48.106;12.008;2022-08-21T06:23:29;1.17;;;1.17;;
58518;SDS011;44310;48.106;12.008;2022-08-21T06:25:59;0.60;;;0.60;;
58518;SDS011;44310;48.106;12.008;2022-08-21T06:28:27;2.30;;;0.90;;
58518;SDS011;44310;48.106;12.008;2022-08-21T06:30:55;0.73;;;0.73;;
58518;SDS011;44310;48.106;12.008;2022-08-21T06:33:22;1.80;;;0.90;;
58518;SDS011;44310;48.106;12.008;2022-08-21T06:35:54;0.73;;;0.73;;
58518;SDS011;44310;48.106;12.008;2022-08-21T06:38:22;0.70;;;0.70;;
58518;SDS011;44310;48.106;12.008;2022-08-21T06:40:49;0.80;;;0.80;;
58518;SDS011;44310;48.106;12.008;2022-08-21T06:43:17;0.55;;;0.55;;
58518;SDS011;44310;48.106;12.008;2022-08-21T06:45:45;0.82;;;0.82;;
58518;SDS011;44310;48.106;12.008;2022-08-21T06:48:12;1.30;;;1.10;;
58518;SDS011;44310;48.106;12.008;2022-08-21T06:50:45;3.20;;;1.50;;
58518;SDS011;44310;48.106;12.008;2022-08-21T06:53:13;0.70;;;0.70;;
58518;SDS011;44310;48.106;12.008;2022-08-21T06:55:42;1.60;;;1.40;;
58518;SDS011;44310;48.106;12.008;2022-08-21T06:58:10;1.60;;;1.50;;
58518;SDS011;44310;48.106;12.008;2022-08-21T07:00:39;0.80;;;0.80;;
58518;SDS011;44310;48.106;12.008;2022-08-21T07:03:16;0.60;;;0.60;;
58518;SDS011;44310;48.106;12.008;2022-08-21T07:05:58;5.90;;;1.80;;
58518;SDS011;44310;48.106;12.008;2022-08-21T07:08:25;1.80;;;1.30;;
58518;SDS011;44310;48.106;12.008;2022-08-21T07:10:54;0.60;;;0.60;;
58518;SDS011;44310;48.106;12.008;2022-08-21T07:13:23;1.52;;;1.10;;
58518;SDS011;44310;48.106;12.008;2022-08-21T07:15:51;0.77;;;0.77;;
58518;SDS011;44310;48.106;12.008;2022-08-21T07:18:18;0.80;;;0.80;;
58518;SDS011;44310;48.106;12.008;2022-08-21T07:20:46;1.00;;;1.00;;
58518;SDS011;44310;48.106;12.008;2022-08-21T07:23:27;1.60;;;1.50;;
58518;SDS011;44310;48.106;12.008;2022-08-21T07:25:57;1.00;;;0.90;;
58518;SDS011;44310;48.106;12.008;2022-08-21T07:28:26;0.55;;;0.55;;
58518;SDS011;44310;48.106;12.008;2022-08-21T07:30:55;0.65;;;0.65;;
58518;SDS011;44310;48.106;12.008;2022-08-21T07:33:24;0.60;;;0.60;;
58518;SDS011;44310;48.106;12.008;2022-08-21T07:35:53;1.75;;;1.00;;
58518;SDS011;44310;48.106;12.008;2022-08-21T07:38:21;0.57;;;0.57;;
58518;SDS011;44310;48.106;12.008;2022-08-21T07:40:49;1.05;;;1.05;;
58518;SDS011;44310;48.106;12.008;2022-08-21T07:43:19;4.20;;;1.40;;
58518;SDS011;44310;48.106;12.008;2022-08-21T07:45:48;0.70;;;0.70;;
58518;SDS011;44310;48.106;12.008;2022-08-21T07:48:16;0.60;;;0.60;;
58518;SDS011;44310;48.106;12.008;2022-08-21T07:50:43;1.20;;;1.20;;
58518;SDS011;44310;48.106;12.008;2022-08-21T07:53:11;2.50;;;1.55;;
58518;SDS011;44310;48.106;12.008;2022-08-21T07:55:38;2.28;;;1.38;;
58518;SDS011;44310;48.106;12.008;2022-08-21T07:58:05;1.10;;;1.10;;
58518;SDS011;44310;48.106;12.008;2022-08-21T08:00:33;3.07;;;1.47;;
58518;SDS011;44310;48.106;12.008;2022-08-21T08:03:01;2.60;;;1.70;;
58518;SDS011;44310;48.106;12.008;2022-08-21T08:05:29;1.30;;;0.98;;
58518;SDS011;44310;48.106;12.008;2022-08-21T08:07:57;0.85;;;0.85;;
58518;SDS011;44310;48.106;12.008;2022-08-21T08:10:25;0.80;;;0.80;;
58518;SDS011;44310;48.106;12.008;2022-08-21T08:12:53;0.65;;;0.65;;
58518;SDS011;44310;48.106;12.008;2022-08-21T08:15:23;1.60;;;1.20;;
58518;SDS011;44310;48.106;12.008;2022-08-21T08:17:52;1.67;;;1.58;;
58518;SDS011;44310;48.106;12.008;2022-08-21T08:20:20;0.75;;;0.75;;
58518;SDS011;44310;48.106;12.008;2022-08-21T08:22:49;3.00;;;1.50;;
58518;SDS011;44310;48.106;12.008;2022-08-21T08:25:18;1.05;;;1.05;;
58518;SDS011;44310;48.106;12.008;2022-08-21T08:27:46;1.23;;;1.23;;
58518;SDS011;44310;48.106;12.008;2022-08-21T08:30:14;0.68;;;0.68;;
58518;SDS011;44310;48.106;12.008;2022-08-21T08:32:45;4.50;;;1.80;;
58518;SDS011;44310;48.106;12.008;2022-08-21T08:35:13;1.13;;;1.08;;
58518;SDS011;44310;48.106;12.008;2022-08-21T08:37:41;1.50;;;1.40;;
58518;SDS011;44310;48.106;12.008;2022-08-21T08:40:20;1.23;;;1.13;;
58518;SDS011;44310;48.106;12.008;2022-08-21T08:42:55;1.30;;;1.20;;
58518;SDS011;44310;48.106;12.008;2022-08-21T08:45:23;1.38;;;1.08;;
58518;SDS011;44310;48.106;12.008;2022-08-21T08:47:53;1.13;;;1.13;;
58518;SDS011;44310;48.106;12.008;2022-08-21T08:53:25;3.95;;;1.23;;
58518;SDS011;44310;48.106;12.008;2022-08-21T08:56:00;0.90;;;0.90;;
58518;SDS011;44310;48.106;12.008;2022-08-21T08:58:34;3.60;;;1.65;;
58518;SDS011;44310;48.106;12.008;2022-08-21T09:01:08;1.10;;;1.10;;
58518;SDS011;44310;48.106;12.008;2022-08-21T09:03:44;3.10;;;1.40;;
58518;SDS011;44310;48.106;12.008;2022-08-21T09:09:22;0.88;;;0.88;;
58518;SDS011;44310;48.106;12.008;2022-08-21T09:12:03;0.80;;;0.80;;
58518;SDS011;44310;48.106;12.008;2022-08-21T09:14:53;1.20;;;1.10;;
58518;SDS011;44310;48.106;12.008;2022-08-21T09:20:37;0.73;;;0.73;;
58518;SDS011;44310;48.106;12.008;2022-08-21T09:26:17;0.80;;;0.80;;
58518;SDS011;44310;48.106;12.008;2022-08-21T09:28:52;1.00;;;1.00;;
58518;SDS011;44310;48.106;12.008;2022-08-21T09:31:26;0.95;;;0.95;;
58518;SDS011;44310;48.106;12.008;2022-08-21T09:34:06;1.40;;;1.20;;
58518;SDS011;44310;48.106;12.008;2022-08-21T09:36:41;0.80;;;0.80;;
58518;SDS011;44310;48.106;12.008;2022-08-21T09:39:10;1.20;;;1.10;;
58518;SDS011;44310;48.106;12.008;2022-08-21T09:41:39;1.77;;;1.27;;
58518;SDS011;44310;48.106;12.008;2022-08-21T09:44:07;1.15;;;1.10;;
58518;SDS011;44310;48.106;12.008;2022-08-21T09:46:35;1.20;;;1.20;;
58518;SDS011;44310;48.106;12.008;2022-08-21T09:49:03;0.90;;;0.90;;
58518;SDS011;44310;48.106;12.008;2022-08-21T09:51:48;1.77;;;1.67;;
58518;SDS011;44310;48.106;12.008;2022-08-21T09:54:20;1.48;;;1.23;;
58518;SDS011;44310;48.106;12.008;2022-08-21T09:56:56;2.10;;;1.58;;
58518;SDS011;44310;48.106;12.008;2022-08-21T10:00:36;1.38;;;1.27;;
58518;SDS011;44310;48.106;12.008;2022-08-21T10:03:08;0.70;;;0.70;;
58518;SDS011;44310;48.106;12.008;2022-08-21T10:05:49;2.08;;;1.35;;
58518;SDS011;44310;48.106;12.008;2022-08-21T10:08:23;4.90;;;1.40;;
58518;SDS011;44310;48.106;12.008;2022-08-21T10:10:54;2.17;;;1.97;;
58518;SDS011;44310;48.106;12.008;2022-08-21T10:13:33;0.70;;;0.70;;
58518;SDS011;44310;48.106;12.008;2022-08-21T10:27:02;3.67;;;2.63;;
58518;SDS011;44310;48.106;12.008;2022-08-21T10:29:53;2.65;;;1.80;;
58518;SDS011;44310;48.106;12.008;2022-08-21T10:41:44;1.30;;;1.30;;
58518;SDS011;44310;48.106;12.008;2022-08-21T10:44:46;1.20;;;1.10;;
58518;SDS011;44310;48.106;12.008;2022-08-21T10:47:32;2.30;;;1.10;;
58518;SDS011;44310;48.106;12.008;2022-08-21T10:52:41;0.77;;;0.75;;
58518;SDS011;44310;48.106;12.008;2022-08-21T10:55:22;0.60;;;0.60;;
58518;SDS011;44310;48.106;12.008;2022-08-21T10:58:02;0.63;;;0.63;;
58518;SDS011;44310;48.106;12.008;2022-08-21T11:05:58;0.90;;;0.90;;
58518;SDS011;44310;48.106;12.008;2022-08-21T11:08:32;0.70;;;0.70;;
58518;SDS011;44310;48.106;12.008;2022-08-21T11:11:24;0.70;;;0.70;;
58518;SDS011;44310;48.106;12.008;2022-08-21T11:27:54;2.83;;;1.02;;
58518;SDS011;44310;48.106;12.008;2022-08-21T11:36:22;1.25;;;1.25;;
58518;SDS011;44310;48.106;12.008;2022-08-21T11:38:57;1.02;;;1.02;;
58518;SDS011;44310;48.106;12.008;2022-08-21T11:47:48;0.60;;;0.60;;
58518;SDS011;44310;48.106;12.008;2022-08-21T11:50:35;0.60;;;0.60;;
58518;SDS011;44310;48.106;12.008;2022-08-21T11:58:25;0.90;;;0.90;;
58518;SDS011;44310;48.106;12.008;2022-08-21T12:01:11;4.97;;;2.38;;
58518;SDS011;44310;48.106;12.008;2022-08-21T12:03:58;0.70;;;0.70;;
58518;SDS011;44310;48.106;12.008;2022-08-21T12:09:03;1.10;;;1.10;;
58518;SDS011;44310;48.106;12.008;2022-08-21T12:11:51;1.38;;;1.02;;
58518;SDS011;44310;48.106;12.008;2022-08-21T12:14:50;1.17;;;1.17;;
58518;SDS011;44310;48.106;12.008;2022-08-21T12:17:37;1.10;;;1.10;;
58518;SDS011;44310;48.106;12.008;2022-08-21T12:20:17;1.85;;;1.75;;
58518;SDS011;44310;48.106;12.008;2022-08-21T12:25:58;1.10;;;0.93;;
58518;SDS011;44310;48.106;12.008;2022-08-21T12:28:28;1.40;;;1.30;;
58518;SDS011;44310;48.106;12.008;2022-08-21T12:30:57;1.20;;;1.10;;
58518;SDS011;44310;48.106;12.008;2022-08-21T12:33:36;1.30;;;1.20;;
58518;SDS011;44310;48.106;12.008;2022-08-21T12:36:15;1.23;;;1.23;;
58518;SDS011;44310;48.106;12.008;2022-08-21T12:41:34;2.40;;;1.73;;
58518;SDS011;44310;48.106;12.008;2022-08-21T12:44:12;3.10;;;1.67;;
58518;SDS011;44310;48.106;12.008;2022-08-21T12:46:45;15.43;;;5.03;;
58518;SDS011;44310;48.106;12.008;2022-08-21T12:49:28;6.67;;;3.10;;
58518;SDS011;44310;48.106;12.008;2022-08-21T12:54:55;4.57;;;3.63;;
58518;SDS011;44310;48.106;12.008;2022-08-21T12:57:24;3.78;;;3.38;;
58518;SDS011;44310;48.106;12.008;2022-08-21T12:59:55;4.40;;;4.00;;
58518;SDS011;44310;48.106;12.008;2022-08-21T13:02:33;2.25;;;2.15;;
58518;SDS011;44310;48.106;12.008;2022-08-21T13:05:07;4.55;;;4.15;;
58518;SDS011;44310;48.106;12.008;2022-08-21T13:07:42;2.95;;;2.75;;
58518;SDS011;44310;48.106;12.008;2022-08-21T13:12:48;3.47;;;2.65;;
58518;SDS011;44310;48.106;12.008;2022-08-21T13:15:22;6.38;;;3.35;;
58518;SDS011;44310;48.106;12.008;2022-08-21T13:17:59;3.33;;;3.13;;
58518;SDS011;44310;48.106;12.008;2022-08-21T13:25:52;2.92;;;2.72;;
58518;SDS011;44310;48.106;12.008;2022-08-21T13:28:20;13.95;;;5.07;;
58518;SDS011;44310;48.106;12.008;2022-08-21T13:30:49;5.95;;;3.38;;
58518;SDS011;44310;48.106;12.008;2022-08-21T13:33:20;3.80;;;2.55;;
58518;SDS011;44310;48.106;12.008;2022-08-21T13:36:09;6.10;;;5.07;;
58518;SDS011;44310;48.106;12.008;2022-08-21T13:38:53;11.25;;;3.83;;
58518;SDS011;44310;48.106;12.008;2022-08-21T13:41:22;4.07;;;3.70;;
58518;SDS011;44310;48.106;12.008;2022-08-21T13:46:48;3.80;;;3.50;;
58518;SDS011;44310;48.106;12.008;2022-08-21T13:49:18;5.70;;;3.00;;
58518;SDS011;44310;48.106;12.008;2022-08-21T13:51:56;4.50;;;2.10;;
58518;SDS011;44310;48.106;12.008;2022-08-21T13:57:02;3.00;;;2.80;;
58518;SDS011;44310;48.106;12.008;2022-08-21T13:59:34;5.40;;;2.90;;
58518;SDS011;44310;48.106;12.008;2022-08-21T14:02:21;5.85;;;1.90;;
58518;SDS011;44310;48.106;12.008;2022-08-21T14:04:54;4.50;;;3.13;;
58518;SDS011;44310;48.106;12.008;2022-08-21T14:07:29;3.05;;;1.65;;
58518;SDS011;44310;48.106;12.008;2022-08-21T14:10:04;1.17;;;1.10;;
58518;SDS011;44310;48.106;12.008;2022-08-21T14:12:40;1.65;;;1.50;;
58518;SDS011;44310;48.106;12.008;2022-08-21T14:15:12;1.10;;;1.10;;
58518;SDS011;44310;48.106;12.008;2022-08-21T14:17:42;1.27;;;1.20;;
58518;SDS011;44310;48.106;12.008;2022-08-21T14:20:12;1.00;;;1.00;;
58518;SDS011;44310;48.106;12.008;2022-08-21T14:22:52;1.10;;;1.10;;
58518;SDS011;44310;48.106;12.008;2022-08-21T14:27:50;5.50;;;3.95;;
58518;SDS011;44310;48.106;12.008;2022-08-21T14:30:37;4.90;;;2.17;;
58518;SDS011;44310;48.106;12.008;2022-08-21T14:33:10;4.30;;;1.60;;
58518;SDS011;44310;48.106;12.008;2022-08-21T14:35:39;2.50;;;1.88;;
58518;SDS011;44310;48.106;12.008;2022-08-21T14:38:17;1.60;;;1.50;;
58518;SDS011;44310;48.106;12.008;2022-08-21T14:40:47;1.10;;;1.00;;
58518;SDS011;44310;48.106;12.008;2022-08-21T14:43:17;0.98;;;0.95;;
58518;SDS011;44310;48.106;12.008;2022-08-21T14:45:45;1.45;;;1.35;;
58518;SDS011;44310;48.106;12.008;2022-08-21T14:48:13;2.00;;;1.67;;
58518;SDS011;44310;48.106;12.008;2022-08-21T14:50:41;0.80;;;0.80;;
58518;SDS011;44310;48.106;12.008;2022-08-21T14:53:09;4.20;;;1.40;;
58518;SDS011;44310;48.106;12.008;2022-08-21T14:55:37;0.80;;;0.80;;
58518;SDS011;44310;48.106;12.008;2022-08-21T14:58:24;0.80;;;0.80;;
58518;SDS011;44310;48.106;12.008;2022-08-21T15:00:52;0.70;;;0.70;;
58518;SDS011;44310;48.106;12.008;2022-08-21T15:03:21;2.30;;;1.60;;
58518;SDS011;44310;48.106;12.008;2022-08-21T15:05:49;1.40;;;1.33;;
58518;SDS011;44310;48.106;12.008;2022-08-21T15:08:17;0.90;;;0.90;;
58518;SDS011;44310;48.106;12.008;2022-08-21T15:10:45;0.80;;;0.80;;
58518;SDS011;44310;48.106;12.008;2022-08-21T15:13:33;0.70;;;0.70;;
58518;SDS011;44310;48.106;12.008;2022-08-21T15:16:01;1.10;;;1.00;;
58518;SDS011;44310;48.106;12.008;2022-08-21T15:18:30;0.95;;;0.95;;
58518;SDS011;44310;48.106;12.008;2022-08-21T15:20:58;0.80;;;0.80;;
58518;SDS011;44310;48.106;12.008;2022-08-21T15:23:25;0.70;;;0.70;;
58518;SDS011;44310;48.106;12.008;2022-08-21T15:25:53;0.90;;;0.90;;
58518;SDS011;44310;48.106;12.008;2022-08-21T15:28:21;0.70;;;0.70;;
58518;SDS011;44310;48.106;12.008;2022-08-21T15:30:49;0.80;;;0.80;;
58518;SDS011;44310;48.106;12.008;2022-08-21T15:33:17;0.60;;;0.60;;
58518;SDS011;44310;48.106;12.008;2022-08-21T15:35:45;0.73;;;0.73;;
58518;SDS011;44310;48.106;12.008;2022-08-21T15:38:13;0.90;;;0.90;;
58518;SDS011;44310;48.106;12.008;2022-08-21T15:40:41;0.88;;;0.88;;
58518;SDS011;44310;48.106;12.008;2022-08-21T15:43:25;0.80;;;0.80;;
58518;SDS011;44310;48.106;12.008;2022-08-21T15:45:58;0.90;;;0.90;;
58518;SDS011;44310;48.106;12.008;2022-08-21T15:48:26;0.63;;;0.63;;
58518;SDS011;44310;48.106;12.008;2022-08-21T15:50:54;0.90;;;0.90;;
58518;SDS011;44310;48.106;12.008;2022-08-21T15:53:22;0.90;;;0.90;;
58518;SDS011;44310;48.106;12.008;2022-08-21T15:55:49;0.63;;;0.63;;
58518;SDS011;44310;48.106;12.008;2022-08-21T15:58:16;0.70;;;0.70;;
58518;SDS011;44310;48.106;12.008;2022-08-21T16:00:46;0.70;;;0.70;;
58518;SDS011;44310;48.106;12.008;2022-08-21T16:03:14;0.80;;;0.80;;
58518;SDS011;44310;48.106;12.008;2022-08-21T16:05:44;0.75;;;0.75;;
58518;SDS011;44310;48.106;12.008;2022-08-21T16:08:14;0.80;;;0.80;;
58518;SDS011;44310;48.106;12.008;2022-08-21T16:10:42;0.80;;;0.80;;
58518;SDS011;44310;48.106;12.008;2022-08-21T16:13:32;0.70;;;0.70;;
58518;SDS011;44310;48.106;12.008;2022-08-21T16:16:02;0.82;;;0.82;;
58518;SDS011;44310;48.106;12.008;2022-08-21T16:18:30;0.90;;;0.90;;
58518;SDS011;44310;48.106;12.008;2022-08-21T16:20:58;0.70;;;0.70;;
58518;SDS011;44310;48.106;12.008;2022-08-21T16:23:25;0.70;;;0.70;;
58518;SDS011;44310;48.106;12.008;2022-08-21T16:25:53;0.88;;;0.88;;
58518;SDS011;44310;48.106;12.008;2022-08-21T16:28:20;0.70;;;0.70;;
58518;SDS011;44310;48.106;12.008;2022-08-21T16:30:51;0.83;;;0.83;;
58518;SDS011;44310;48.106;12.008;2022-08-21T16:34:02;0.60;;;0.60;;
58518;SDS011;44310;48.106;12.008;2022-08-21T16:36:10;0.90;;;0.90;;
58518;SDS011;44310;48.106;12.008;2022-08-21T16:38:38;0.70;;;0.70;;